createdAt,value
2023-01-07T00:01:48.737Z,10.40
2023-01-07T00:04:16.313Z,10.40
2023-01-07T00:06:44.616Z,10.40
2023-01-07T00:09:16.792Z,10.30
2023-01-07T00:11:44.915Z,10.30
2023-01-07T00:14:13.054Z,10.30
2023-01-07T00:16:40.507Z,10.30
2023-01-07T00:19:10.273Z,10.30
2023-01-07T00:21:37.011Z,10.30
2023-01-07T00:24:06.520Z,10.30
2023-01-07T00:26:35.787Z,10.30
2023-01-07T00:29:03.897Z,10.30
2023-01-07T00:31:33.672Z,10.32
2023-01-07T00:34:01.262Z,10.40
2023-01-07T00:36:30.945Z,10.40
2023-01-07T00:39:00.182Z,10.40
2023-01-07T00:41:27.743Z,10.40
2023-01-07T00:43:55.077Z,10.44
2023-01-07T00:46:22.467Z,10.44
2023-01-07T00:48:49.726Z,10.40
2023-01-07T00:51:17.974Z,10.40
2023-01-07T00:53:45.239Z,10.40
2023-01-07T00:56:14.679Z,10.40
2023-01-07T00:58:42.182Z,10.40
2023-01-07T01:01:10.689Z,10.40
2023-01-07T01:03:38.658Z,10.40
2023-01-07T01:06:08.550Z,10.40
2023-01-07T01:08:35.657Z,10.40
2023-01-07T01:11:05.123Z,10.40
2023-01-07T01:13:32.245Z,10.40
2023-01-07T01:15:59.731Z,10.40
2023-01-07T01:18:26.673Z,10.38
2023-01-07T01:20:55.083Z,10.32
2023-01-07T01:23:22.164Z,10.30
2023-01-07T01:25:48.835Z,10.30
2023-01-07T01:28:15.663Z,10.30
2023-01-07T01:30:42.387Z,10.30
2023-01-07T01:33:09.661Z,10.30
2023-01-07T01:35:41.424Z,10.30
2023-01-07T01:38:08.396Z,10.20
2023-01-07T01:40:35.094Z,10.20
2023-01-07T01:43:04.313Z,10.20
2023-01-07T01:45:32.037Z,10.20
2023-01-07T01:48:04.925Z,10.20
2023-01-07T01:50:47.632Z,10.20
2023-01-07T01:53:23.809Z,10.20
2023-01-07T01:56:07.642Z,10.20
2023-01-07T01:58:43.447Z,10.20
2023-01-07T02:01:10.804Z,10.14
2023-01-07T02:03:38.248Z,10.10
2023-01-07T02:06:07.825Z,10.10
2023-01-07T02:08:34.524Z,10.10
2023-01-07T02:11:11.761Z,10.10
2023-01-07T02:13:49.259Z,10.10
2023-01-07T02:16:46.795Z,10.10
2023-01-07T02:19:44.852Z,10.10
2023-01-07T02:22:38.220Z,10.10
2023-01-07T02:25:32.729Z,10.10
2023-01-07T02:28:19.801Z,10.18
2023-01-07T02:31:11.823Z,10.20
2023-01-07T02:33:57.468Z,10.20
2023-01-07T02:36:31.965Z,10.20
2023-01-07T02:39:17.750Z,10.20
2023-01-07T02:41:52.114Z,10.20
2023-01-07T02:44:44.201Z,10.20
2023-01-07T02:47:18.407Z,10.20
2023-01-07T02:49:48.238Z,10.20
2023-01-07T02:52:24.149Z,10.12
2023-01-07T02:55:02.012Z,10.10
2023-01-07T02:57:40.604Z,10.10
2023-01-07T03:00:15.128Z,10.10
2023-01-07T03:03:03.748Z,10.10
2023-01-07T03:05:43.329Z,10.10
2023-01-07T03:08:29.118Z,10.10
2023-01-07T03:11:02.640Z,10.08
2023-01-07T03:13:39.185Z,10.00
2023-01-07T03:16:12.515Z,10.00
2023-01-07T03:18:46.214Z,10.00
2023-01-07T03:21:16.980Z,10.00
2023-01-07T03:23:54.201Z,10.00
2023-01-07T03:26:26.905Z,10.00
2023-01-07T03:28:55.044Z,10.00
2023-01-07T03:31:22.784Z,9.90
2023-01-07T03:34:05.414Z,9.90
2023-01-07T03:36:44.883Z,9.90
2023-01-07T03:39:13.807Z,9.90
2023-01-07T03:41:59.741Z,9.90
2023-01-07T03:44:27.093Z,9.90
2023-01-07T03:46:54.039Z,9.90
2023-01-07T03:49:21.109Z,9.88
2023-01-07T03:51:49.634Z,9.80
2023-01-07T03:54:16.923Z,9.80
2023-01-07T03:56:43.735Z,9.80
2023-01-07T03:59:10.506Z,9.80
2023-01-07T04:01:37.344Z,9.76
2023-01-07T04:04:04.672Z,9.70
2023-01-07T04:06:32.136Z,9.70
2023-01-07T04:08:59.002Z,9.70
2023-01-07T04:11:26.044Z,9.60
2023-01-07T04:13:53.503Z,9.60
2023-01-07T04:16:20.779Z,9.60
2023-01-07T04:18:48.161Z,9.60
2023-01-07T04:21:15.207Z,9.60
2023-01-07T04:23:41.892Z,9.60
2023-01-07T04:26:09.964Z,9.60
2023-01-07T04:28:38.244Z,9.60
2023-01-07T04:31:05.120Z,9.60
2023-01-07T04:33:32.848Z,9.60
2023-01-07T04:36:00.205Z,9.60
2023-01-07T04:38:27.779Z,9.50
2023-01-07T04:40:54.809Z,9.50
2023-01-07T04:43:21.840Z,9.50
2023-01-07T04:45:48.616Z,9.50
2023-01-07T04:48:17.177Z,9.50
2023-01-07T04:50:44.124Z,9.50
2023-01-07T04:53:10.866Z,9.50
2023-01-07T04:55:39.352Z,9.50
2023-01-07T04:58:06.595Z,9.50
2023-01-07T05:00:33.429Z,9.40
2023-01-07T05:03:00.253Z,9.40
2023-01-07T05:05:27.565Z,9.40
2023-01-07T05:07:54.474Z,9.40
2023-01-07T05:10:21.523Z,9.40
2023-01-07T05:12:48.468Z,9.40
2023-01-07T05:15:15.614Z,9.32
2023-01-07T05:17:42.704Z,9.30
2023-01-07T05:20:10.221Z,9.30
2023-01-07T05:22:37.595Z,9.30
2023-01-07T05:25:05.635Z,9.30
2023-01-07T05:27:32.349Z,9.36
2023-01-07T05:29:59.527Z,9.40
2023-01-07T05:32:26.228Z,9.40
2023-01-07T05:34:53.129Z,9.40
2023-01-07T05:37:19.936Z,9.40
2023-01-07T05:39:47.725Z,9.34
2023-01-07T05:42:17.436Z,9.38
2023-01-07T05:44:44.364Z,9.30
2023-01-07T05:47:11.117Z,9.30
2023-01-07T05:49:37.794Z,9.20
2023-01-07T05:52:04.810Z,9.20
2023-01-07T05:54:31.501Z,9.10
2023-01-07T05:56:58.200Z,9.06
2023-01-07T05:59:24.924Z,9.00
2023-01-07T06:01:51.759Z,9.00
2023-01-07T06:04:18.607Z,8.90
2023-01-07T06:06:45.316Z,8.90
2023-01-07T06:09:12.089Z,8.90
2023-01-07T06:11:38.846Z,8.90
2023-01-07T06:14:05.563Z,8.80
2023-01-07T06:16:32.303Z,8.80
2023-01-07T06:18:59.057Z,8.82
2023-01-07T06:21:25.766Z,8.80
2023-01-07T06:23:52.405Z,8.80
2023-01-07T06:26:19.270Z,8.80
2023-01-07T06:28:46.108Z,8.80
2023-01-07T06:31:12.938Z,8.70
2023-01-07T06:33:40.807Z,8.70
2023-01-07T06:36:08.578Z,8.70
2023-01-07T06:38:35.419Z,8.70
2023-01-07T06:41:02.367Z,8.70
2023-01-07T06:43:29.880Z,8.70
2023-01-07T06:45:56.938Z,8.72
2023-01-07T06:48:23.649Z,8.78
2023-01-07T06:50:50.450Z,8.78
2023-01-07T06:53:17.603Z,8.80
2023-01-07T06:55:51.316Z,8.80
2023-01-07T06:58:18.477Z,8.80
2023-01-07T07:00:45.409Z,8.76
2023-01-07T07:03:12.429Z,8.80
2023-01-07T07:05:39.287Z,8.76
2023-01-07T07:08:06.877Z,8.70
2023-01-07T07:10:33.891Z,8.70
2023-01-07T07:13:00.616Z,8.60
2023-01-07T07:15:27.374Z,8.60
2023-01-07T07:17:54.431Z,8.60
2023-01-07T07:20:21.556Z,8.60
2023-01-07T07:22:49.162Z,8.60
2023-01-07T07:25:15.985Z,8.60
2023-01-07T07:27:46.343Z,8.60
2023-01-07T07:30:17.051Z,8.60
2023-01-07T07:32:44.160Z,8.60
2023-01-07T07:35:11.580Z,8.60
2023-01-07T07:37:38.473Z,8.50
2023-01-07T07:40:06.635Z,8.50
2023-01-07T07:43:10.808Z,8.40
2023-01-07T07:45:20.194Z,8.40
2023-01-07T07:47:47.286Z,8.40
2023-01-07T07:50:14.198Z,8.40
2023-01-07T07:52:40.945Z,8.38
2023-01-07T07:55:20.373Z,8.30
2023-01-07T07:57:57.213Z,8.32
2023-01-07T08:00:24.804Z,8.36
2023-01-07T08:02:51.648Z,8.40
2023-01-07T08:05:18.436Z,8.40
2023-01-07T08:07:45.127Z,8.40
2023-01-07T08:10:11.993Z,8.40
2023-01-07T08:12:39.425Z,8.40
2023-01-07T08:15:08.183Z,8.40
2023-01-07T08:17:36.339Z,8.40
2023-01-07T08:20:04.744Z,8.46
2023-01-07T08:22:31.911Z,8.50
2023-01-07T08:24:58.561Z,8.50
2023-01-07T08:27:27.891Z,8.58
2023-01-07T08:29:55.635Z,8.60
2023-01-07T08:32:22.362Z,8.60
2023-01-07T08:34:49.079Z,8.62
2023-01-07T08:37:15.824Z,8.70
2023-01-07T08:39:42.678Z,8.70
2023-01-07T08:42:09.415Z,8.70
2023-01-07T08:44:36.174Z,8.80
2023-01-07T08:47:02.958Z,8.80
2023-01-07T08:49:29.736Z,8.80
2023-01-07T08:51:56.476Z,8.82
2023-01-07T08:54:23.199Z,8.90
2023-01-07T08:56:49.922Z,8.90
2023-01-07T08:59:16.698Z,8.92
2023-01-07T09:01:43.654Z,9.00
2023-01-07T09:04:10.458Z,9.00
2023-01-07T09:06:37.197Z,9.00
2023-01-07T09:09:03.927Z,9.02
2023-01-07T09:11:30.596Z,9.08
2023-01-07T09:13:57.247Z,9.10
2023-01-07T09:16:23.970Z,9.10
2023-01-07T09:18:50.821Z,9.14
2023-01-07T09:21:17.484Z,9.20
2023-01-07T09:23:44.330Z,9.20
2023-01-07T09:26:11.052Z,9.30
2023-01-07T09:28:37.801Z,9.30
2023-01-07T09:31:05.744Z,9.30
2023-01-07T09:33:32.937Z,9.40
2023-01-07T09:36:00.384Z,9.40
2023-01-07T09:38:27.077Z,9.50
2023-01-07T09:40:54.239Z,9.50
2023-01-07T09:43:20.833Z,9.60
2023-01-07T09:45:53.314Z,9.60
2023-01-07T09:48:33.327Z,9.70
2023-01-07T09:51:06.059Z,9.70
2023-01-07T09:53:37.001Z,9.80
2023-01-07T09:56:10.578Z,9.80
2023-01-07T09:58:43.064Z,9.90
2023-01-07T10:01:32.128Z,10.00
2023-01-07T10:04:14.213Z,10.06
2023-01-07T10:07:06.197Z,10.10
2023-01-07T10:09:45.864Z,10.12
2023-01-07T10:12:21.789Z,10.20
2023-01-07T10:14:59.394Z,10.24
2023-01-07T10:17:47.901Z,10.30
2023-01-07T10:20:26.765Z,10.32
2023-01-07T10:23:11.891Z,10.40
2023-01-07T10:25:46.151Z,10.48
2023-01-07T10:28:20.974Z,10.50
2023-01-07T10:30:53.556Z,10.52
2023-01-07T10:33:29.790Z,10.60
2023-01-07T10:36:25.215Z,10.60
2023-01-07T10:39:11.016Z,10.70
2023-01-07T10:41:46.762Z,10.74
2023-01-07T10:44:22.437Z,10.80
2023-01-07T10:47:06.357Z,10.90
2023-01-07T10:49:55.588Z,10.90
2023-01-07T10:52:37.623Z,11.00
2023-01-07T10:55:26.376Z,11.06
2023-01-07T10:57:53.117Z,11.10
2023-01-07T11:00:20.608Z,11.18
2023-01-07T11:02:59.785Z,11.20
2023-01-07T11:05:39.165Z,11.22
2023-01-07T11:08:14.929Z,11.30
2023-01-07T11:10:42.460Z,11.30
2023-01-07T11:13:26.587Z,11.36
2023-01-07T11:16:04.408Z,11.40
2023-01-07T11:18:39.502Z,11.40
2023-01-07T11:21:06.446Z,11.50
2023-01-07T11:23:34.783Z,11.50
2023-01-07T11:26:15.776Z,11.50
2023-01-07T11:29:16.262Z,11.50
2023-01-07T11:31:50.313Z,11.50
2023-01-07T11:35:00.836Z,11.50
2023-01-07T11:37:45.364Z,11.50
2023-01-07T11:40:17.691Z,11.60
2023-01-07T11:42:48.610Z,11.56
2023-01-07T11:45:23.540Z,11.50
2023-01-07T11:47:50.381Z,11.50
2023-01-07T11:50:37.402Z,11.50
2023-01-07T11:53:16.121Z,11.50
2023-01-07T11:56:01.418Z,11.50
2023-01-07T11:58:36.959Z,11.50
2023-01-07T12:01:20.788Z,11.50
2023-01-07T12:03:53.628Z,11.50
2023-01-07T12:06:25.164Z,11.50
2023-01-07T12:09:04.240Z,11.50
2023-01-07T12:11:40.533Z,11.50
2023-01-07T12:14:16.893Z,11.48
2023-01-07T12:16:47.804Z,11.40
2023-01-07T12:19:32.216Z,11.48
2023-01-07T12:22:21.101Z,11.40
2023-01-07T12:25:12.744Z,11.40
2023-01-07T12:28:14.119Z,11.42
2023-01-07T12:30:54.793Z,11.50
2023-01-07T12:33:45.051Z,11.50
2023-01-07T12:36:28.067Z,11.54
2023-01-07T12:39:01.003Z,11.58
2023-01-07T12:41:34.137Z,11.50
2023-01-07T12:44:12.767Z,11.50
2023-01-07T12:46:44.374Z,11.50
2023-01-07T12:49:22.117Z,11.50
2023-01-07T12:51:59.900Z,11.40
2023-01-07T12:54:42.949Z,11.38
2023-01-07T12:57:18.147Z,11.32
2023-01-07T12:59:51.127Z,11.30
2023-01-07T13:02:35.735Z,11.30
2023-01-07T13:05:19.051Z,11.30
2023-01-07T13:07:56.328Z,11.30
2023-01-07T13:10:28.506Z,11.24
2023-01-07T13:13:01.083Z,11.26
2023-01-07T13:15:34.007Z,11.20
2023-01-07T13:18:19.088Z,11.16
2023-01-07T13:21:12.756Z,11.10
2023-01-07T13:23:54.806Z,11.10
2023-01-07T13:26:33.961Z,11.10
2023-01-07T13:29:00.675Z,11.10
2023-01-07T13:31:43.278Z,11.10
2023-01-07T13:34:23.093Z,11.10
2023-01-07T13:37:03.523Z,11.10
2023-01-07T13:39:47.828Z,11.12
2023-01-07T13:42:41.200Z,11.10
2023-01-07T13:45:17.877Z,11.18
2023-01-07T13:47:52.204Z,11.18
2023-01-07T13:50:31.144Z,11.08
2023-01-07T13:53:01.192Z,11.16
2023-01-07T13:55:39.973Z,11.18
2023-01-07T13:58:29.343Z,11.10
2023-01-07T14:01:24.393Z,11.10
2023-01-07T14:03:53.597Z,11.10
2023-01-07T14:06:20.619Z,11.02
2023-01-07T14:09:07.322Z,11.00
2023-01-07T14:11:34.030Z,11.00
2023-01-07T14:14:13.159Z,10.90
2023-01-07T14:16:48.013Z,10.80
2023-01-07T14:19:25.521Z,10.80
2023-01-07T14:22:06.153Z,10.80
2023-01-07T14:24:51.205Z,10.70
2023-01-07T14:27:52.362Z,10.70
2023-01-07T14:30:24.640Z,10.60
2023-01-07T14:33:01.166Z,10.60
2023-01-07T14:35:36.604Z,10.58
2023-01-07T14:38:29.729Z,10.50
2023-01-07T14:41:13.453Z,10.50
2023-01-07T14:43:45.969Z,10.50
2023-01-07T14:46:22.267Z,10.50
2023-01-07T14:48:58.106Z,10.40
2023-01-07T14:51:46.911Z,10.30
2023-01-07T14:54:16.397Z,10.30
2023-01-07T14:56:54.923Z,10.20
2023-01-07T14:59:39.778Z,10.20
2023-01-07T15:02:25.334Z,10.10
2023-01-07T15:05:30.059Z,10.10
2023-01-07T15:08:21.205Z,10.10
2023-01-07T15:11:09.733Z,10.00
2023-01-07T15:14:00.680Z,10.00
2023-01-07T15:16:30.411Z,10.00
2023-01-07T15:18:57.546Z,10.00
2023-01-07T15:21:41.505Z,9.98
2023-01-07T15:24:33.496Z,9.90
2023-01-07T15:27:12.480Z,9.90
2023-01-07T15:30:28.217Z,9.80
2023-01-07T15:33:15.081Z,9.80
2023-01-07T15:35:44.443Z,9.70
2023-01-07T15:38:37.279Z,9.64
2023-01-07T15:41:04.419Z,9.60
2023-01-07T15:43:31.730Z,9.50
2023-01-07T15:46:04.774Z,9.40
2023-01-07T15:48:31.713Z,9.40
2023-01-07T15:51:00.400Z,9.30
2023-01-07T15:53:29.378Z,9.20
2023-01-07T15:56:01.520Z,9.14
2023-01-07T15:58:34.515Z,9.10
2023-01-07T16:01:02.836Z,9.00
2023-01-07T16:03:31.208Z,9.00
2023-01-07T16:05:59.901Z,8.90
2023-01-07T16:08:30.991Z,8.88
2023-01-07T16:11:19.676Z,8.80
2023-01-07T16:14:02.094Z,8.70
2023-01-07T16:16:30.972Z,8.70
2023-01-07T16:19:02.471Z,8.60
2023-01-07T16:21:43.497Z,8.52
2023-01-07T16:24:16.493Z,8.50
2023-01-07T16:26:49.559Z,8.40
2023-01-07T16:29:21.608Z,8.30
2023-01-07T16:31:48.854Z,8.30
2023-01-07T16:34:25.171Z,8.20
2023-01-07T16:37:04.527Z,8.12
2023-01-07T16:39:39.100Z,8.10
2023-01-07T16:42:23.447Z,8.00
2023-01-07T16:44:53.285Z,7.98
2023-01-07T16:47:23.939Z,7.90
2023-01-07T16:49:52.613Z,7.80
2023-01-07T16:52:26.099Z,7.76
2023-01-07T16:54:52.841Z,7.70
2023-01-07T16:57:30.437Z,7.60
2023-01-07T17:00:01.673Z,7.50
2023-01-07T17:02:36.906Z,7.50
2023-01-07T17:05:18.720Z,7.40
2023-01-07T17:07:51.384Z,7.30
2023-01-07T17:10:26.015Z,7.30
2023-01-07T17:13:04.938Z,7.20
2023-01-07T17:15:31.701Z,7.20
2023-01-07T17:18:17.568Z,7.10
2023-01-07T17:20:52.699Z,7.10
2023-01-07T17:23:28.852Z,7.00
2023-01-07T17:25:57.681Z,7.00
2023-01-07T17:28:26.769Z,6.90
2023-01-07T17:30:54.196Z,6.84
2023-01-07T17:33:24.416Z,6.80
2023-01-07T17:35:54.375Z,6.70
2023-01-07T17:38:21.682Z,6.70
2023-01-07T17:40:49.479Z,6.64
2023-01-07T17:43:35.236Z,6.60
2023-01-07T17:46:07.515Z,6.60
2023-01-07T17:48:35.993Z,6.56
2023-01-07T17:51:04.541Z,6.50
2023-01-07T17:53:42.896Z,6.50
2023-01-07T17:56:09.647Z,6.50
2023-01-07T17:58:38.308Z,6.50
2023-01-07T18:01:10.902Z,6.48
2023-01-07T18:03:37.934Z,6.40
2023-01-07T18:06:16.527Z,6.40
2023-01-07T18:08:44.519Z,6.40
2023-01-07T18:11:32.971Z,6.40
2023-01-07T18:14:00.037Z,6.40
2023-01-07T18:16:27.157Z,6.32
2023-01-07T18:18:54.723Z,6.30
2023-01-07T18:21:21.464Z,6.30
2023-01-07T18:23:48.322Z,6.22
2023-01-07T18:26:15.903Z,6.16
2023-01-07T18:28:42.603Z,6.20
2023-01-07T18:31:10.062Z,6.20
2023-01-07T18:33:37.106Z,6.12
2023-01-07T18:36:04.565Z,6.10
2023-01-07T18:38:31.519Z,6.10
2023-01-07T18:40:58.428Z,6.10
2023-01-07T18:43:25.386Z,6.10
2023-01-07T18:45:52.195Z,6.00
2023-01-07T18:48:19.809Z,6.00
2023-01-07T18:50:48.843Z,6.00
2023-01-07T18:53:17.473Z,6.00
2023-01-07T18:55:45.737Z,5.98
2023-01-07T18:58:14.737Z,5.92
2023-01-07T19:00:42.046Z,5.90
2023-01-07T19:03:11.101Z,5.90
2023-01-07T19:05:40.114Z,5.90
2023-01-07T19:08:07.016Z,5.90
2023-01-07T19:10:34.301Z,5.80
2023-01-07T19:13:01.332Z,5.80
2023-01-07T19:15:27.984Z,5.80
2023-01-07T19:17:54.636Z,5.70
2023-01-07T19:20:21.343Z,5.70
2023-01-07T19:22:47.982Z,5.70
2023-01-07T19:25:14.623Z,5.60
2023-01-07T19:27:41.370Z,5.60
2023-01-07T19:30:09.024Z,5.60
2023-01-07T19:32:35.772Z,5.50
2023-01-07T19:35:02.485Z,5.50
2023-01-07T19:37:29.212Z,5.50
2023-01-07T19:39:55.847Z,5.40
2023-01-07T19:42:22.615Z,5.40
2023-01-07T19:44:49.465Z,5.36
2023-01-07T19:47:17.334Z,5.30
2023-01-07T19:49:45.551Z,5.30
2023-01-07T19:52:13.775Z,5.30
2023-01-07T19:54:41.868Z,5.30
2023-01-07T19:57:09.719Z,5.26
2023-01-07T19:59:36.597Z,5.30
2023-01-07T20:02:04.089Z,5.30
2023-01-07T20:04:31.180Z,5.28
2023-01-07T20:06:57.830Z,5.20
2023-01-07T20:09:24.548Z,5.20
2023-01-07T20:11:51.266Z,5.18
2023-01-07T20:14:18.326Z,5.20
2023-01-07T20:16:45.062Z,5.20
2023-01-07T20:19:12.481Z,5.20
2023-01-07T20:21:40.227Z,5.18
2023-01-07T20:24:07.550Z,5.16
2023-01-07T20:26:36.535Z,5.10
2023-01-07T20:29:04.192Z,5.10
2023-01-07T20:31:31.549Z,5.10
2023-01-07T20:33:59.911Z,5.00
2023-01-07T20:36:29.321Z,5.00
2023-01-07T20:38:56.152Z,5.00
2023-01-07T20:41:26.187Z,4.90
2023-01-07T20:43:55.468Z,4.90
2023-01-07T20:46:23.247Z,4.90
2023-01-07T20:48:50.196Z,4.80
2023-01-07T20:51:17.293Z,4.80
2023-01-07T20:53:44.919Z,4.80
2023-01-07T20:56:12.653Z,4.70
2023-01-07T20:58:39.826Z,4.70
2023-01-07T21:01:10.240Z,4.64
2023-01-07T21:03:38.930Z,4.60
2023-01-07T21:06:09.854Z,4.60
2023-01-07T21:08:37.134Z,4.50
2023-01-07T21:11:04.467Z,4.50
2023-01-07T21:13:31.227Z,4.42
2023-01-07T21:16:04.687Z,4.40
2023-01-07T21:18:33.696Z,4.36
2023-01-07T21:21:02.110Z,4.30
2023-01-07T21:23:29.011Z,4.30
2023-01-07T21:25:55.783Z,4.20
2023-01-07T21:28:22.417Z,4.20
2023-01-07T21:30:50.161Z,4.20
2023-01-07T21:33:16.907Z,4.10
2023-01-07T21:35:43.592Z,4.10
2023-01-07T21:38:10.563Z,4.00
2023-01-07T21:40:39.349Z,4.00
2023-01-07T21:43:06.732Z,4.00
2023-01-07T21:45:33.442Z,3.90
2023-01-07T21:48:00.314Z,3.90
2023-01-07T21:50:27.154Z,3.90
2023-01-07T21:52:53.813Z,3.90
2023-01-07T21:55:20.531Z,3.82
2023-01-07T21:57:47.271Z,3.80
2023-01-07T22:00:15.124Z,3.80
2023-01-07T22:02:41.873Z,3.70
2023-01-07T22:05:09.341Z,3.70
2023-01-07T22:07:36.051Z,3.70
2023-01-07T22:10:02.857Z,3.64
2023-01-07T22:12:29.661Z,3.60
2023-01-07T22:14:56.296Z,3.62
2023-01-07T22:17:24.553Z,3.60
2023-01-07T22:19:51.219Z,3.60
2023-01-07T22:22:19.519Z,3.60
2023-01-07T22:24:46.538Z,3.60
2023-01-07T22:27:13.269Z,3.60
2023-01-07T22:29:40.008Z,3.60
2023-01-07T22:32:06.707Z,3.60
2023-01-07T22:34:33.417Z,3.60
2023-01-07T22:37:14.471Z,3.60
2023-01-07T22:39:57.846Z,3.60
2023-01-07T22:42:37.250Z,3.60
2023-01-07T22:45:17.506Z,3.60
2023-01-07T22:47:48.837Z,3.62
2023-01-07T22:50:16.260Z,3.70
2023-01-07T22:52:43.582Z,3.70
2023-01-07T22:55:12.958Z,3.70
2023-01-07T22:57:40.368Z,3.68
2023-01-07T23:00:16.780Z,3.68
2023-01-07T23:02:43.459Z,3.60
2023-01-07T23:05:10.168Z,3.60
2023-01-07T23:07:36.898Z,3.60
2023-01-07T23:10:03.852Z,3.60
2023-01-07T23:12:30.495Z,3.50
2023-01-07T23:14:57.206Z,3.50
2023-01-07T23:17:23.866Z,3.54
2023-01-07T23:19:50.509Z,3.52
2023-01-07T23:22:17.146Z,3.50
2023-01-07T23:24:43.861Z,3.50
2023-01-07T23:27:10.610Z,3.50
2023-01-07T23:29:38.987Z,3.50
2023-01-07T23:32:08.474Z,3.40
2023-01-07T23:34:35.156Z,3.40
2023-01-07T23:37:01.858Z,3.40
2023-01-07T23:39:28.599Z,3.40
2023-01-07T23:41:55.304Z,3.40
2023-01-07T23:44:22.284Z,3.32
2023-01-07T23:46:48.984Z,3.30
2023-01-07T23:49:15.768Z,3.28
2023-01-07T23:51:42.460Z,3.30
2023-01-07T23:54:09.954Z,3.30
2023-01-07T23:56:36.697Z,3.30
2023-01-07T23:59:03.853Z,3.30
